map of LIL home
Great Circle Mapper logo
LIL - Airport
Location
City:  Lille, France
Name:Lesquin
ICAO / IATA:LFQQ / LIL

Details
Type:Airport (Aerodrome, Airfield)
Use:Public/Civil, International (customs port of entry)
Latitude:5033'48"N (50.563333)
Longitude:305'13"E (3.086944)
Elevation:157 ft (48 m)
Runways:2
Longest:9268 × 148 ft (2825 × 45 m)

Time
Time Zone:UTC+1 (DST+2)
Local Time:

Weather
METAR:LFQQ 211230Z VRB03KT 9999 FEW043CB BKN050 20/07 Q1002 TEMPO 3000 TSRA
TAF:LFQQ 211100Z 2112/2218 30008KT 9999 SCT030
TEMPO 2112/2121 5000 SHRA BKN025TCU PROB30
TEMPO 2112/2118 VRB15G25KT 1500 TSRA BKN015CB
BECMG 2119/2121 VRB02KT
BECMG 2121/2124 24010KT 5000 RA BKN007 OVC013
BECMG 2202/2205 9999 NSW BKN013
BECMG 2208/2211 SCT030
TEMPO 2213/2218 5000 SHRA BKN025TCU

Related Locations
Nearby:
Farthest:CHT: 11963 mi / 19252 km
Waitangi [Tuuta], Chatham Islands, NZ

Find:

   beyond  
but within

Other Information
Maps:
NOTAMs:
Links:
Sources:

  
flag of France   

Sectional Chart

Flight Planning
at skyvector.com

Satellite Image

Google Maps Satellite View

 

Copyright © 2004-2014 Karl L. Swartz. All rights reserved.
The Great Circle Mapper name and logo are trademarks of the Great Circle Mapper.
All other trademarks mentioned herein belong to their respective owners.
Please see credits for attibutions and further copyright information.

  Follow gcmap on Facebook Follow gcmap on Twitter

hCard Microformat

Geo Microformat